Time;durP1;ratioP1;P1;durP2;ratioP2;P2;SDS_P1;SDS_P2;PMS_P1;PMS_P2;Temp;Humidity;BMP_temperature;BMP_pressure;BME280_temperature;BME280_humidity;BME280_pressure;Samples;Min_cycle;Max_cycle;Signal;HPM_P1;HPM_P2
2022/10/15 00:01:32;;;;;;;10.45;3.72;;;11.60;99.90;;;;;;5035859;28;20105;-57
2022/10/15 00:03:58;;;;;;;5.20;3.63;;;11.60;99.90;;;;;;5036316;28;20044;-56
2022/10/15 00:06:30;;;;;;;8.50;3.97;;;11.50;99.90;;;;;;5018632;28;20073;-58
2022/10/15 00:08:57;;;;;;;8.00;4.20;;;11.50;99.90;;;;;;5036045;28;20041;-58
2022/10/15 00:11:24;;;;;;;5.82;4.20;;;11.50;99.90;;;;;;5036146;28;20076;-58
2022/10/15 00:13:51;;;;;;;6.00;3.67;;;11.50;99.90;;;;;;5036375;28;20045;-57
2022/10/15 00:16:18;;;;;;;8.93;4.40;;;11.40;99.90;;;;;;5036365;28;20041;-57
2022/10/15 00:18:45;;;;;;;8.63;4.63;;;11.40;99.90;;;;;;5036162;28;20037;-56
2022/10/15 00:21:11;;;;;;;6.28;4.00;;;11.30;99.90;;;;;;5035513;28;20116;-57
2022/10/15 00:23:38;;;;;;;5.88;4.03;;;11.20;99.90;;;;;;5035695;28;20037;-57
2022/10/15 00:26:05;;;;;;;8.07;3.92;;;11.20;99.90;;;;;;5035467;28;20495;-54
2022/10/15 00:28:32;;;;;;;6.32;3.63;;;11.10;99.90;;;;;;5035248;28;20447;-57
2022/10/15 00:31:00;;;;;;;6.03;3.60;;;11.10;99.90;;;;;;5018620;28;20050;-57
2022/10/15 00:33:27;;;;;;;5.30;3.72;;;11.00;99.90;;;;;;5018117;28;20087;-56
2022/10/15 00:35:53;;;;;;;5.80;4.07;;;11.00;99.90;;;;;;5035167;28;20053;-58
2022/10/15 00:38:20;;;;;;;7.88;3.78;;;11.00;99.90;;;;;;5035498;28;20037;-58
2022/10/15 00:40:47;;;;;;;7.55;3.63;;;10.90;99.90;;;;;;5018103;28;20073;-58
2022/10/15 00:43:13;;;;;;;9.23;4.30;;;10.90;99.90;;;;;;5035274;28;20072;-56
2022/10/15 00:45:40;;;;;;;7.30;3.70;;;10.90;99.90;;;;;;5017876;28;20449;-54
2022/10/15 00:48:07;;;;;;;7.50;4.03;;;10.80;99.90;;;;;;5034836;28;20095;-58
2022/10/15 00:50:34;;;;;;;9.00;4.43;;;10.80;99.90;;;;;;5035078;28;20059;-54
2022/10/15 00:53:00;;;;;;;5.97;4.18;;;10.80;99.90;;;;;;5017319;28;20079;-57
2022/10/15 00:55:27;;;;;;;5.82;3.60;;;10.70;99.90;;;;;;5034816;28;20080;-58
2022/10/15 00:57:54;;;;;;;9.25;4.03;;;10.70;99.90;;;;;;5034317;28;20038;-55
2022/10/15 01:00:20;;;;;;;6.78;3.97;;;10.60;99.90;;;;;;5035187;28;20081;-60
2022/10/15 01:02:47;;;;;;;5.88;3.67;;;10.60;99.90;;;;;;5034777;28;20037;-55
2022/10/15 01:05:15;;;;;;;6.53;4.22;;;10.60;99.90;;;;;;5034673;28;20045;-59
2022/10/15 01:07:41;;;;;;;5.50;3.85;;;10.60;99.90;;;;;;5035103;28;20135;-58
2022/10/15 01:10:08;;;;;;;7.82;3.75;;;10.50;99.90;;;;;;5017134;28;20050;-58
2022/10/15 01:12:37;;;;;;;9.35;3.42;;;10.50;99.90;;;;;;5034451;28;20053;-54
2022/10/15 01:15:03;;;;;;;5.80;3.83;;;10.50;99.90;;;;;;5016604;28;20080;-59
2022/10/15 01:17:30;;;;;;;8.38;3.85;;;10.50;99.90;;;;;;5016598;28;20515;-58
2022/10/15 01:19:57;;;;;;;7.32;4.10;;;10.40;99.90;;;;;;5016526;28;20045;-57
2022/10/15 01:22:23;;;;;;;6.65;3.75;;;10.40;99.90;;;;;;5016803;28;20393;-57
2022/10/15 01:24:50;;;;;;;8.27;3.63;;;10.40;99.90;;;;;;5016684;28;20038;-57
2022/10/15 01:27:17;;;;;;;6.43;4.88;;;10.30;99.90;;;;;;5034321;28;20045;-58
2022/10/15 01:29:44;;;;;;;7.15;3.58;;;10.30;99.90;;;;;;5016489;28;20084;-58
2022/10/15 01:32:10;;;;;;;6.78;3.35;;;10.30;99.90;;;;;;5016431;28;20477;-56
2022/10/15 01:34:37;;;;;;;5.63;3.63;;;10.20;99.90;;;;;;5016263;28;20073;-58
2022/10/15 01:37:04;;;;;;;5.72;3.45;;;10.30;99.90;;;;;;5016718;28;20440;-54
2022/10/15 01:39:31;;;;;;;6.30;3.80;;;10.20;99.90;;;;;;5034499;28;20117;-58
2022/10/15 01:41:58;;;;;;;6.18;3.53;;;10.20;99.90;;;;;;5016178;28;20065;-56
2022/10/15 01:44:25;;;;;;;6.53;3.40;;;10.20;99.90;;;;;;5016669;28;20046;-57
2022/10/15 01:47:08;;;;;;;6.55;3.28;;;10.20;99.90;;;;;;5016369;28;20052;-57
2022/10/15 01:49:35;;;;;;;8.32;4.07;;;10.20;99.90;;;;;;5016355;28;20080;-58
2022/10/15 01:52:02;;;;;;;5.70;3.38;;;10.10;99.90;;;;;;5016621;28;20370;-54
2022/10/15 01:54:28;;;;;;;6.05;3.40;;;10.10;99.90;;;;;;5015858;28;20045;-57
2022/10/15 01:56:55;;;;;;;8.10;3.60;;;10.10;99.90;;;;;;5033548;28;20061;-57
2022/10/15 01:59:22;;;;;;;8.95;3.83;;;10.10;99.90;;;;;;5016085;28;20042;-58
2022/10/15 02:01:48;;;;;;;6.85;3.60;;;10.10;99.90;;;;;;5033636;28;20038;-57
2022/10/15 02:04:15;;;;;;;6.03;3.90;;;10.10;99.90;;;;;;5033517;28;20073;-56
2022/10/15 02:06:43;;;;;;;6.65;3.90;;;10.10;99.90;;;;;;5016377;28;20072;-53
2022/10/15 02:09:10;;;;;;;5.45;3.92;;;10.10;99.90;;;;;;5034101;28;20076;-55
2022/10/15 02:11:37;;;;;;;11.45;4.50;;;10.10;99.90;;;;;;5033041;28;20049;-58
2022/10/15 02:14:03;;;;;;;7.43;4.50;;;10.10;99.90;;;;;;5016125;28;20049;-58
2022/10/15 02:16:30;;;;;;;7.30;4.63;;;10.10;99.90;;;;;;5015920;28;20081;-59
2022/10/15 02:18:57;;;;;;;8.95;4.82;;;10.00;99.90;;;;;;5015677;28;20107;-55
2022/10/15 02:21:26;;;;;;;10.70;5.25;;;10.10;99.90;;;;;;5033374;28;20053;-57
2022/10/15 02:23:53;;;;;;;9.20;5.38;;;10.10;99.90;;;;;;5015537;28;20049;-55
2022/10/15 02:26:24;;;;;;;7.18;4.78;;;10.10;99.90;;;;;;5033669;28;20033;-56
2022/10/15 02:28:51;;;;;;;10.00;5.47;;;10.10;99.90;;;;;;5015382;28;20072;-55
2022/10/15 02:31:17;;;;;;;10.13;5.53;;;10.10;99.90;;;;;;5015652;28;20143;-58
2022/10/15 02:33:44;;;;;;;10.02;5.97;;;10.10;99.90;;;;;;5033628;28;20493;-57
2022/10/15 02:36:12;;;;;;;11.98;6.70;;;10.10;99.90;;;;;;5015726;28;20046;-58
2022/10/15 02:38:39;;;;;;;11.63;6.65;;;10.10;99.90;;;;;;5015735;28;20033;-58
2022/10/15 02:41:05;;;;;;;11.13;7.07;;;10.10;99.90;;;;;;5033309;28;20485;-58
2022/10/15 02:43:32;;;;;;;14.13;8.88;;;10.10;99.90;;;;;;5016208;28;20041;-56
2022/10/15 02:45:59;;;;;;;16.58;9.48;;;10.10;99.90;;;;;;5015484;28;20049;-59
2022/10/15 02:48:26;;;;;;;19.25;10.80;;;10.10;99.90;;;;;;5015405;28;20056;-57
2022/10/15 02:50:52;;;;;;;13.50;9.40;;;10.10;99.90;;;;;;5015402;28;20081;-58
2022/10/15 02:53:19;;;;;;;15.60;9.55;;;10.10;99.90;;;;;;5015430;28;20127;-57
2022/10/15 02:55:46;;;;;;;14.95;8.85;;;10.10;99.90;;;;;;5015167;28;20146;-56
2022/10/15 02:58:13;;;;;;;16.02;9.07;;;10.10;99.90;;;;;;5015250;28;20492;-58
2022/10/15 03:00:42;;;;;;;12.85;8.02;;;10.10;99.90;;;;;;5015856;28;20050;-55
2022/10/15 03:03:09;;;;;;;12.95;7.28;;;10.10;99.90;;;;;;5015888;28;20477;-57
2022/10/15 03:05:36;;;;;;;11.07;7.63;;;10.00;99.90;;;;;;5015917;28;20056;-57
2022/10/15 03:08:03;;;;;;;11.25;7.78;;;10.00;99.90;;;;;;5015301;28;20133;-59
2022/10/15 03:10:30;;;;;;;10.50;7.25;;;10.00;99.90;;;;;;5015493;28;20056;-57
2022/10/15 03:12:58;;;;;;;13.13;7.40;;;10.00;99.90;;;;;;5015527;28;20115;-56
2022/10/15 03:15:26;;;;;;;10.73;6.85;;;10.00;99.90;;;;;;5015240;28;20436;-59
2022/10/15 03:17:52;;;;;;;10.40;6.93;;;10.00;99.90;;;;;;5032766;28;20049;-59
2022/10/15 03:20:19;;;;;;;9.20;6.25;;;9.90;99.90;;;;;;5015754;28;20046;-54
2022/10/15 03:22:46;;;;;;;7.70;5.60;;;9.90;99.90;;;;;;5017868;28;20038;-58
2022/10/15 03:25:12;;;;;;;10.55;5.55;;;9.90;99.90;;;;;;5036699;28;20041;-57
2022/10/15 03:27:39;;;;;;;8.73;5.50;;;9.90;99.90;;;;;;5019219;28;20041;-57
2022/10/15 03:30:19;;;;;;;7.68;5.47;;;9.90;99.90;;;;;;5018941;28;20049;-56
2022/10/15 03:32:46;;;;;;;7.40;5.10;;;9.80;99.90;;;;;;5018523;28;20053;-53
2022/10/15 03:35:14;;;;;;;8.10;5.53;;;9.80;99.90;;;;;;5018472;28;20148;-55
2022/10/15 03:37:41;;;;;;;8.85;5.75;;;9.80;99.90;;;;;;5018664;28;20045;-59
2022/10/15 03:40:08;;;;;;;8.18;5.70;;;9.80;99.90;;;;;;5018792;28;20400;-56
2022/10/15 03:42:41;;;;;;;9.60;6.03;;;9.70;99.90;;;;;;4994963;28;20049;-58
2022/10/15 03:45:09;;;;;;;7.15;5.00;;;9.80;99.90;;;;;;4978608;28;20046;-55
2022/10/15 03:47:36;;;;;;;7.07;5.13;;;9.70;99.90;;;;;;4978507;28;20046;-60
2022/10/15 03:50:03;;;;;;;8.27;4.95;;;9.70;99.90;;;;;;4994596;28;20490;-58
2022/10/15 03:52:29;;;;;;;7.68;5.20;;;9.70;99.90;;;;;;4978533;28;20104;-58
2022/10/15 03:54:58;;;;;;;7.10;4.65;;;9.70;99.90;;;;;;4978307;28;20521;-59
2022/10/15 03:57:25;;;;;;;7.63;4.63;;;9.70;99.90;;;;;;4978436;28;20050;-61
2022/10/15 03:59:58;;;;;;;6.57;4.88;;;9.70;99.90;;;;;;4994358;28;20049;-60
2022/10/15 04:02:27;;;;;;;6.95;4.85;;;9.70;99.90;;;;;;4994629;28;20046;-58
2022/10/15 04:04:55;;;;;;;7.40;5.30;;;9.70;99.90;;;;;;4978231;28;20042;-59
2022/10/15 04:07:22;;;;;;;7.28;5.50;;;9.70;99.90;;;;;;4977935;28;20050;-59
2022/10/15 04:09:49;;;;;;;6.18;4.60;;;9.70;99.90;;;;;;4977860;28;20088;-57
2022/10/15 04:12:21;;;;;;;7.10;4.13;;;9.70;99.90;;;;;;4977822;28;20143;-56
2022/10/15 04:14:49;;;;;;;6.07;4.60;;;9.70;99.90;;;;;;5015595;28;20046;-58
2022/10/15 04:17:16;;;;;;;8.02;4.57;;;9.70;99.90;;;;;;5017932;28;20044;-57
2022/10/15 04:19:43;;;;;;;9.80;4.50;;;9.70;99.90;;;;;;5017840;28;20049;-59
2022/10/15 04:22:12;;;;;;;10.55;4.50;;;9.70;99.90;;;;;;5035470;28;20049;-58
2022/10/15 04:24:47;;;;;;;6.40;4.57;;;9.70;99.90;;;;;;5017715;28;20475;-60
2022/10/15 04:27:24;;;;;;;5.22;3.88;;;9.70;99.90;;;;;;5017812;28;20088;-57
2022/10/15 04:29:51;;;;;;;7.68;4.60;;;9.60;99.90;;;;;;5035210;28;20045;-59
2022/10/15 04:32:18;;;;;;;6.68;4.38;;;9.60;99.90;;;;;;5017539;28;20080;-60
2022/10/15 04:34:45;;;;;;;6.00;4.75;;;9.60;99.90;;;;;;5035038;28;20084;-58
2022/10/15 04:37:13;;;;;;;6.13;4.32;;;9.50;99.90;;;;;;5017884;28;20385;-56
2022/10/15 04:39:40;;;;;;;6.43;4.53;;;9.50;99.90;;;;;;5017288;28;20049;-59
2022/10/15 04:42:10;;;;;;;7.05;4.85;;;9.50;99.90;;;;;;5017552;28;20095;-59
2022/10/15 04:44:37;;;;;;;8.70;4.60;;;9.40;99.90;;;;;;5035316;28;20061;-58
2022/10/15 04:47:04;;;;;;;6.75;5.13;;;9.50;99.90;;;;;;5017352;28;20088;-60
2022/10/15 04:49:36;;;;;;;6.97;4.65;;;9.50;99.90;;;;;;5017328;28;20457;-59
2022/10/15 04:52:09;;;;;;;7.68;4.72;;;9.40;99.90;;;;;;5017169;28;20420;-58
2022/10/15 04:54:42;;;;;;;8.93;4.95;;;9.50;99.90;;;;;;5017072;28;20524;-60
2022/10/15 04:57:10;;;;;;;7.90;4.75;;;9.40;99.90;;;;;;5016916;28;20104;-59
2022/10/15 04:59:36;;;;;;;8.43;4.72;;;9.40;99.90;;;;;;5035118;28;20152;-59
2022/10/15 05:02:38;;;;;;;6.13;4.10;;;9.50;99.90;;;;;;5034181;28;20049;-60
2022/10/15 05:05:29;;;;;;;8.68;4.10;;;9.50;99.90;;;;;;5017202;28;20095;-60
2022/10/15 05:07:59;;;;;;;6.25;4.13;;;9.50;99.90;;;;;;5016898;28;20053;-58
2022/10/15 05:10:27;;;;;;;6.15;4.82;;;9.50;99.90;;;;;;5016686;28;20500;-58
2022/10/15 05:12:54;;;;;;;5.53;4.13;;;9.40;99.90;;;;;;5016620;28;20259;-57
2022/10/15 05:15:29;;;;;;;6.82;4.07;;;9.40;99.90;;;;;;5016781;28;20052;-59
2022/10/15 05:17:56;;;;;;;6.30;4.60;;;9.40;99.90;;;;;;5034490;28;20472;-60
2022/10/15 05:20:30;;;;;;;6.93;4.35;;;9.40;99.90;;;;;;5016810;28;20037;-57
2022/10/15 05:22:57;;;;;;;6.63;4.20;;;9.40;99.90;;;;;;5017241;28;20136;-58
2022/10/15 05:25:29;;;;;;;5.90;4.38;;;9.40;99.90;;;;;;5016911;28;20488;-61
2022/10/15 05:27:56;;;;;;;6.35;4.40;;;9.30;99.90;;;;;;5016344;28;20506;-60
2022/10/15 05:30:23;;;;;;;7.97;4.65;;;9.40;99.90;;;;;;5016318;28;20111;-60
2022/10/15 05:32:51;;;;;;;5.70;4.65;;;9.40;99.90;;;;;;5016223;28;20500;-59
2022/10/15 05:35:19;;;;;;;7.50;5.18;;;9.30;99.90;;;;;;5016804;28;20077;-60
2022/10/15 05:37:52;;;;;;;8.55;5.30;;;9.30;99.90;;;;;;5016475;28;20075;-58
2022/10/15 05:40:19;;;;;;;7.88;4.70;;;9.30;99.90;;;;;;5016893;28;20053;-59
2022/10/15 05:43:03;;;;;;;6.85;5.57;;;9.30;99.90;;;;;;5016639;28;20041;-60
2022/10/15 05:45:30;;;;;;;6.10;4.70;;;9.30;99.90;;;;;;5015579;28;20495;-61
2022/10/15 05:48:02;;;;;;;8.98;5.93;;;9.30;99.90;;;;;;5016346;28;20042;-58
2022/10/15 05:50:28;;;;;;;8.27;6.00;;;9.20;99.90;;;;;;5016106;28;20049;-60
2022/10/15 05:52:57;;;;;;;6.97;5.30;;;9.20;99.90;;;;;;5016064;28;20072;-61
2022/10/15 05:55:58;;;;;;;8.55;5.15;;;9.20;99.90;;;;;;5022286;28;20084;-59
2022/10/15 05:58:29;;;;;;;5.72;4.57;;;9.20;99.90;;;;;;5034238;28;20377;-58
2022/10/15 06:01:02;;;;;;;8.93;5.43;;;9.20;99.90;;;;;;5034137;28;20037;-57
2022/10/15 06:03:29;;;;;;;10.82;5.97;;;9.20;99.90;;;;;;5033392;28;20563;-60
2022/10/15 06:05:56;;;;;;;7.05;5.25;;;9.20;99.90;;;;;;5034022;28;20457;-57
2022/10/15 06:08:22;;;;;;;6.75;5.10;;;9.20;99.90;;;;;;5033489;28;20069;-59
2022/10/15 06:10:49;;;;;;;7.05;5.18;;;9.20;99.90;;;;;;5016077;28;20041;-57
2022/10/15 06:13:16;;;;;;;6.15;4.75;;;9.20;99.90;;;;;;5033446;28;20073;-56
2022/10/15 06:15:43;;;;;;;6.70;4.88;;;9.20;99.90;;;;;;5033774;28;20477;-59
2022/10/15 06:18:09;;;;;;;8.25;5.00;;;9.20;99.90;;;;;;5033519;28;20073;-59
2022/10/15 06:20:36;;;;;;;7.10;5.05;;;9.20;99.90;;;;;;5033500;28;20121;-57
2022/10/15 06:23:03;;;;;;;7.22;5.22;;;9.20;99.90;;;;;;5033812;28;20038;-58
2022/10/15 06:25:29;;;;;;;6.68;5.13;;;9.20;99.90;;;;;;5033495;28;20091;-60
2022/10/15 06:27:56;;;;;;;7.13;4.90;;;9.20;99.90;;;;;;5015982;28;20057;-59
2022/10/15 06:30:25;;;;;;;7.70;5.07;;;9.10;99.90;;;;;;5033124;28;20416;-56
2022/10/15 06:32:52;;;;;;;7.45;5.53;;;9.10;99.90;;;;;;5033663;28;20120;-59
2022/10/15 06:35:19;;;;;;;7.75;5.25;;;9.10;99.90;;;;;;5033521;28;20128;-59
2022/10/15 06:37:46;;;;;;;8.35;5.63;;;9.10;99.90;;;;;;5033086;28;20064;-58
2022/10/15 06:40:12;;;;;;;9.10;5.93;;;9.10;99.90;;;;;;5033737;28;20048;-59
2022/10/15 06:42:40;;;;;;;8.15;5.80;;;9.10;99.90;;;;;;5033838;28;20049;-57
2022/10/15 06:45:09;;;;;;;7.85;5.55;;;9.00;99.90;;;;;;5015284;28;20061;-59
2022/10/15 06:47:35;;;;;;;8.18;5.88;;;9.00;99.90;;;;;;5016176;28;20053;-60
2022/10/15 06:50:04;;;;;;;8.65;6.03;;;8.90;99.90;;;;;;5033216;28;20045;-57
2022/10/15 06:52:32;;;;;;;8.77;5.85;;;8.90;99.90;;;;;;5033686;28;20044;-59
2022/10/15 06:54:58;;;;;;;7.88;5.60;;;8.90;99.90;;;;;;5015714;28;20061;-58
2022/10/15 06:57:25;;;;;;;7.20;5.28;;;8.90;99.90;;;;;;5035468;28;20050;-60
2022/10/15 06:59:52;;;;;;;6.32;5.20;;;8.90;99.90;;;;;;5037355;28;20428;-58
2022/10/15 07:02:19;;;;;;;8.05;4.80;;;9.00;99.90;;;;;;5037236;28;20072;-59
2022/10/15 07:04:46;;;;;;;11.07;5.35;;;9.10;99.90;;;;;;5019660;28;20047;-58
2022/10/15 07:07:16;;;;;;;7.03;4.93;;;9.20;99.90;;;;;;5037316;28;20037;-60
2022/10/15 07:09:45;;;;;;;9.25;4.88;;;9.30;99.90;;;;;;5036823;28;20046;-57
2022/10/15 07:12:12;;;;;;;8.07;4.78;;;9.50;99.90;;;;;;5037219;28;20092;-59
2022/10/15 07:14:39;;;;;;;8.18;4.53;;;9.60;99.90;;;;;;5037271;28;20136;-55
2022/10/15 07:17:08;;;;;;;10.23;5.00;;;9.70;99.90;;;;;;5037304;28;20057;-57
2022/10/15 07:19:34;;;;;;;8.85;4.63;;;9.90;99.90;;;;;;5036676;28;20117;-59
2022/10/15 07:22:01;;;;;;;11.30;5.25;;;10.00;99.90;;;;;;5036645;28;20046;-60
2022/10/15 07:24:28;;;;;;;13.95;4.15;;;10.10;99.90;;;;;;5036857;28;20095;-58
2022/10/15 07:26:54;;;;;;;9.13;4.70;;;10.20;99.90;;;;;;5036797;28;20049;-60
2022/10/15 07:29:21;;;;;;;10.95;5.43;;;10.30;99.90;;;;;;5036551;28;20053;-59
2022/10/15 07:31:48;;;;;;;8.75;4.43;;;10.40;99.90;;;;;;5036745;28;20472;-59
2022/10/15 07:34:17;;;;;;;8.30;4.10;;;10.50;99.90;;;;;;5036394;28;20459;-59
2022/10/15 07:36:43;;;;;;;8.95;3.30;;;10.50;99.90;;;;;;5036614;28;20124;-60
2022/10/15 07:39:12;;;;;;;11.57;3.20;;;10.60;99.90;;;;;;5036501;28;20389;-59
2022/10/15 07:41:39;;;;;;;8.60;3.22;;;10.70;99.90;;;;;;5036541;28;20095;-58
2022/10/15 07:44:06;;;;;;;8.38;2.88;;;10.80;99.90;;;;;;5036598;28;20400;-57
2022/10/15 07:46:32;;;;;;;10.10;3.20;;;10.90;99.90;;;;;;5036002;28;20457;-59
2022/10/15 07:48:59;;;;;;;8.98;3.33;;;10.90;99.90;;;;;;5036439;28;20088;-57
2022/10/15 07:51:26;;;;;;;6.00;2.97;;;11.00;99.90;;;;;;5036895;28;20100;-57
2022/10/15 07:53:52;;;;;;;7.05;2.50;;;11.10;99.90;;;;;;5035869;28;20046;-56
2022/10/15 07:56:19;;;;;;;7.72;3.08;;;11.10;99.90;;;;;;5035880;28;20129;-59
2022/10/15 07:58:50;;;;;;;6.80;2.88;;;11.20;99.90;;;;;;5036124;28;20540;-59
2022/10/15 08:01:17;;;;;;;10.10;3.00;;;11.20;99.90;;;;;;5035841;28;20096;-58
2022/10/15 08:03:44;;;;;;;5.40;2.13;;;11.20;99.90;;;;;;5035760;28;20199;-59
2022/10/15 08:06:10;;;;;;;11.75;6.05;;;11.30;99.90;;;;;;5036298;28;20072;-58
2022/10/15 08:08:37;;;;;;;8.70;4.38;;;11.30;99.90;;;;;;5034651;28;20045;-60
2022/10/15 08:11:04;;;;;;;5.63;2.30;;;11.40;99.90;;;;;;5035501;28;20077;-59
2022/10/15 08:13:31;;;;;;;6.50;2.88;;;11.40;99.90;;;;;;5035811;28;20091;-58
2022/10/15 08:15:57;;;;;;;7.43;2.80;;;11.40;99.90;;;;;;5035304;28;20469;-59
2022/10/15 08:18:26;;;;;;;11.13;2.15;;;11.50;99.90;;;;;;5035373;28;20045;-60
2022/10/15 08:20:53;;;;;;;7.30;2.10;;;11.60;99.90;;;;;;5035587;28;20099;-61
2022/10/15 08:23:19;;;;;;;7.50;2.33;;;11.60;99.90;;;;;;5035721;28;20129;-60
2022/10/15 08:25:46;;;;;;;10.90;6.20;;;11.70;99.90;;;;;;5035366;28;20503;-58
2022/10/15 08:28:14;;;;;;;12.82;3.47;;;11.70;99.90;;;;;;5035184;28;20048;-61
2022/10/15 08:30:40;;;;;;;5.93;2.47;;;11.80;99.90;;;;;;5018168;28;20103;-57
2022/10/15 08:33:11;;;;;;;5.30;1.42;;;11.80;99.90;;;;;;5035599;28;20140;-61
2022/10/15 08:35:38;;;;;;;9.57;1.85;;;11.90;99.90;;;;;;5035211;28;20038;-59
2022/10/15 08:38:04;;;;;;;3.00;1.02;;;12.00;99.90;;;;;;5034972;28;20050;-59
2022/10/15 08:40:31;;;;;;;4.63;1.83;;;12.00;99.90;;;;;;5034902;28;20075;-60
2022/10/15 08:42:59;;;;;;;5.68;1.40;;;12.00;99.90;;;;;;5035124;28;20045;-59
2022/10/15 08:45:26;;;;;;;4.07;1.17;;;12.10;99.90;;;;;;5035122;28;20091;-58
2022/10/15 08:47:53;;;;;;;5.32;0.90;;;12.20;99.90;;;;;;5035262;28;20040;-58
2022/10/15 08:50:19;;;;;;;7.10;1.08;;;12.20;99.90;;;;;;5035250;28;20095;-60
2022/10/15 08:52:46;;;;;;;4.95;0.90;;;12.30;99.90;;;;;;5035189;28;20100;-58
2022/10/15 08:55:13;;;;;;;2.60;0.80;;;12.30;99.90;;;;;;5017657;28;20127;-60
2022/10/15 08:57:40;;;;;;;5.07;0.90;;;12.30;99.90;;;;;;5034988;28;20050;-58
2022/10/15 09:00:07;;;;;;;6.78;1.10;;;12.40;99.90;;;;;;5035468;28;20453;-59
2022/10/15 09:02:37;;;;;;;7.40;1.15;;;12.40;99.90;;;;;;5035082;28;20050;-58
2022/10/15 09:05:04;;;;;;;5.13;2.42;;;12.40;99.90;;;;;;5034445;28;20404;-59
2022/10/15 09:07:33;;;;;;;4.15;1.70;;;12.50;99.90;;;;;;5035203;28;20538;-58
2022/10/15 09:10:01;;;;;;;6.63;0.95;;;12.50;99.90;;;;;;5034810;28;20042;-58
2022/10/15 09:12:27;;;;;;;5.95;0.77;;;12.50;99.90;;;;;;5017988;28;20156;-58
2022/10/15 09:14:54;;;;;;;2.15;0.80;;;12.60;99.90;;;;;;5034492;28;20468;-58
2022/10/15 09:17:23;;;;;;;5.32;0.98;;;12.60;99.90;;;;;;5034463;28;20041;-57
2022/10/15 09:19:51;;;;;;;5.57;0.82;;;12.70;99.90;;;;;;5034166;28;20048;-59
2022/10/15 09:22:19;;;;;;;6.07;0.93;;;12.70;99.90;;;;;;5017760;28;20050;-61
2022/10/15 09:24:46;;;;;;;8.23;1.42;;;12.80;99.90;;;;;;5034507;28;20072;-59
2022/10/15 09:27:15;;;;;;;6.13;0.80;;;12.80;99.90;;;;;;5034972;28;20402;-61
2022/10/15 09:29:42;;;;;;;3.38;1.10;;;12.80;99.90;;;;;;5034749;28;20088;-58
2022/10/15 09:32:11;;;;;;;4.40;0.80;;;12.90;99.90;;;;;;5035206;28;20404;-58
2022/10/15 09:34:38;;;;;;;10.27;5.85;;;12.90;99.90;;;;;;5034126;28;20045;-58
2022/10/15 09:37:05;;;;;;;4.50;1.42;;;13.00;99.90;;;;;;5034465;28;20091;-60
2022/10/15 09:39:36;;;;;;;3.90;0.80;;;13.00;99.90;;;;;;5016008;28;20392;-59
2022/10/15 09:42:02;;;;;;;2.85;0.90;;;13.10;99.90;;;;;;5034026;28;20112;-59
2022/10/15 09:44:29;;;;;;;6.60;1.00;;;13.10;99.90;;;;;;5033924;28;20465;-60
2022/10/15 09:46:56;;;;;;;3.80;0.80;;;13.20;99.90;;;;;;5034308;28;20073;-59
2022/10/15 09:49:22;;;;;;;5.30;1.10;;;13.20;99.90;;;;;;5033969;28;20068;-59
2022/10/15 09:51:51;;;;;;;4.60;1.00;;;13.30;99.90;;;;;;5033656;28;20552;-60
2022/10/15 09:54:17;;;;;;;7.35;1.05;;;13.30;99.90;;;;;;5033870;28;20136;-58
2022/10/15 09:56:48;;;;;;;8.02;1.10;;;13.40;99.90;;;;;;5034405;28;20049;-58
2022/10/15 09:59:17;;;;;;;6.22;1.20;;;13.50;99.90;;;;;;5034209;28;20527;-58
2022/10/15 10:01:44;;;;;;;6.28;1.40;;;13.60;99.90;;;;;;5016311;28;20041;-58
2022/10/15 10:04:10;;;;;;;5.18;1.20;;;13.60;99.90;;;;;;5033979;28;20056;-60
2022/10/15 10:06:37;;;;;;;8.35;1.50;;;13.60;99.90;;;;;;5034330;28;20092;-60
2022/10/15 10:09:04;;;;;;;4.80;1.00;;;13.70;99.90;;;;;;5034579;28;20049;-58
2022/10/15 10:11:31;;;;;;;6.70;1.30;;;13.70;99.90;;;;;;5034623;28;20096;-60
2022/10/15 10:13:58;;;;;;;10.82;1.20;;;13.70;99.90;;;;;;5034162;28;20042;-57
2022/10/15 10:16:25;;;;;;;5.18;1.25;;;13.70;99.90;;;;;;5033669;28;20045;-56
2022/10/15 10:18:55;;;;;;;4.45;1.00;;;13.80;99.90;;;;;;5033421;28;20038;-58
2022/10/15 10:21:22;;;;;;;8.80;1.20;;;13.90;99.90;;;;;;5033349;28;20072;-58
2022/10/15 10:23:49;;;;;;;9.38;3.15;;;13.90;99.90;;;;;;5033131;28;20048;-59
2022/10/15 10:26:15;;;;;;;17.17;8.65;;;14.00;99.90;;;;;;5033260;28;20092;-55
2022/10/15 10:28:42;;;;;;;7.53;1.85;;;14.00;99.90;;;;;;5033460;28;20105;-58
2022/10/15 10:31:10;;;;;;;5.28;1.67;;;14.10;99.90;;;;;;5035573;28;20076;-52
2022/10/15 10:33:36;;;;;;;7.10;1.48;;;14.10;99.90;;;;;;5040408;28;20107;-60
2022/10/15 10:36:05;;;;;;;11.27;2.40;;;14.20;99.90;;;;;;5039727;28;20080;-54
2022/10/15 10:38:32;;;;;;;9.00;1.58;;;14.20;99.90;;;;;;5040057;28;20065;-57
2022/10/15 10:41:04;;;;;;;6.82;1.40;;;14.20;99.90;;;;;;5022319;28;20103;-55
2022/10/15 10:43:31;;;;;;;7.35;1.60;;;14.30;99.90;;;;;;5039911;28;20042;-57
2022/10/15 10:46:05;;;;;;;7.07;1.45;;;14.40;99.90;;;;;;5039665;28;20132;-60
2022/10/15 10:48:37;;;;;;;40.50;4.53;;;14.40;99.90;;;;;;5040419;28;20485;-59
2022/10/15 10:51:03;;;;;;;16.55;2.63;;;14.60;99.90;;;;;;5039884;28;20381;-58
2022/10/15 10:53:34;;;;;;;14.38;3.95;;;14.70;99.90;;;;;;5021753;28;20533;-56
2022/10/15 10:56:01;;;;;;;15.88;2.17;;;14.90;99.90;;;;;;5039403;28;20046;-59
2022/10/15 10:58:28;;;;;;;14.25;1.58;;;15.10;99.90;;;;;;5040099;28;20119;-60
2022/10/15 11:00:55;;;;;;;6.90;1.10;;;15.10;99.90;;;;;;5040020;28;20072;-60
2022/10/15 11:03:22;;;;;;;7.68;2.00;;;15.10;99.90;;;;;;5039891;28;20091;-58
2022/10/15 11:05:55;;;;;;;6.00;1.45;;;15.20;99.90;;;;;;5023335;28;20175;-59
2022/10/15 11:08:22;;;;;;;7.95;1.60;;;15.30;99.90;;;;;;5039512;28;20077;-57
2022/10/15 11:10:50;;;;;;;7.13;1.33;;;15.40;99.90;;;;;;5039628;28;20112;-60
2022/10/15 11:13:16;;;;;;;5.22;1.20;;;15.50;99.90;;;;;;5039446;28;20736;-58
2022/10/15 11:15:43;;;;;;;8.98;1.17;;;15.60;99.90;;;;;;5039518;28;20049;-58
2022/10/15 11:18:10;;;;;;;4.07;1.30;;;15.70;99.90;;;;;;5039397;28;20041;-60
2022/10/15 11:20:36;;;;;;;6.43;1.10;;;15.80;99.90;;;;;;5022002;28;20081;-56
2022/10/15 11:23:19;;;;;;;9.05;2.70;;;15.80;99.90;;;;;;5039590;28;20049;-57
2022/10/15 11:25:50;;;;;;;5.43;1.20;;;15.90;99.90;;;;;;5039472;28;20052;-60
2022/10/15 11:28:17;;;;;;;7.53;1.48;;;15.90;99.90;;;;;;5039313;28;20041;-58
2022/10/15 11:30:44;;;;;;;4.97;1.45;;;15.90;99.90;;;;;;5039518;28;20053;-58
2022/10/15 11:33:10;;;;;;;8.75;1.50;;;16.00;99.90;;;;;;5039237;28;20191;-59
2022/10/15 11:35:37;;;;;;;9.30;1.40;;;16.00;99.90;;;;;;5039189;28;20496;-60
2022/10/15 11:38:19;;;;;;;7.38;1.38;;;15.90;99.90;;;;;;5039836;28;20124;-60
2022/10/15 11:40:46;;;;;;;8.27;1.20;;;15.90;99.90;;;;;;5039991;28;20515;-60
2022/10/15 11:43:12;;;;;;;11.98;1.70;;;15.90;99.90;;;;;;5037502;28;20076;-59
2022/10/15 11:45:39;;;;;;;5.28;1.00;;;15.90;99.90;;;;;;5018483;28;20048;-60
2022/10/15 11:48:09;;;;;;;7.65;1.45;;;15.80;99.90;;;;;;5036201;28;20492;-59
2022/10/15 11:50:36;;;;;;;8.43;1.58;;;15.90;99.90;;;;;;5036793;28;20076;-60
2022/10/15 11:53:02;;;;;;;5.38;1.20;;;15.90;99.90;;;;;;5036254;28;20088;-59
2022/10/15 11:55:29;;;;;;;7.85;1.05;;;16.00;99.90;;;;;;5018162;28;20099;-58
2022/10/15 11:57:56;;;;;;;5.40;1.15;;;15.90;99.90;;;;;;5018431;28;20050;-60
2022/10/15 12:00:22;;;;;;;6.93;1.20;;;15.90;99.90;;;;;;5036031;28;20514;-59
2022/10/15 12:02:49;;;;;;;8.18;1.50;;;15.90;99.90;;;;;;5036299;28;20076;-60
2022/10/15 12:05:16;;;;;;;9.25;1.50;;;16.00;99.90;;;;;;5035591;28;20037;-58
2022/10/15 12:07:43;;;;;;;3.75;1.08;;;15.90;99.90;;;;;;5035969;28;20120;-59
2022/10/15 12:10:11;;;;;;;7.78;1.50;;;15.90;99.90;;;;;;5018230;28;20103;-56
2022/10/15 12:12:37;;;;;;;7.78;1.30;;;15.90;99.90;;;;;;5018583;28;20053;-60
2022/10/15 12:15:04;;;;;;;9.38;1.50;;;15.90;99.90;;;;;;5035993;28;20050;-55
2022/10/15 12:17:31;;;;;;;12.23;1.80;;;15.80;99.90;;;;;;5035671;28;20076;-59
2022/10/15 12:19:58;;;;;;;11.98;3.70;;;15.90;99.90;;;;;;5035844;28;20038;-58
2022/10/15 12:22:24;;;;;;;9.18;1.50;;;15.80;99.90;;;;;;5035412;28;20120;-56
2022/10/15 12:24:58;;;;;;;11.98;4.88;;;15.90;99.90;;;;;;5035771;28;20045;-58
2022/10/15 12:27:25;;;;;;;18.13;5.40;;;15.90;99.90;;;;;;5035744;28;20050;-58
2022/10/15 12:29:52;;;;;;;6.57;1.95;;;15.80;99.90;;;;;;5017648;28;20518;-58
2022/10/15 12:32:19;;;;;;;6.28;1.63;;;15.80;99.90;;;;;;5017927;28;20120;-59
2022/10/15 12:34:46;;;;;;;6.82;1.80;;;15.80;99.90;;;;;;5035263;28;20045;-57
2022/10/15 12:37:12;;;;;;;9.30;1.95;;;15.80;99.90;;;;;;5035327;28;20072;-59
2022/10/15 12:39:39;;;;;;;10.10;2.20;;;15.80;99.90;;;;;;5035180;28;20046;-57
2022/10/15 12:42:17;;;;;;;11.00;2.38;;;15.80;99.90;;;;;;5035336;28;20136;-58
2022/10/15 12:44:44;;;;;;;7.15;2.03;;;15.80;99.90;;;;;;5035032;28;20047;-59
2022/10/15 12:47:10;;;;;;;7.07;1.50;;;15.80;99.90;;;;;;5034909;28;20120;-59
2022/10/15 12:49:37;;;;;;;9.95;2.58;;;15.80;99.90;;;;;;5034884;28;20045;-60
2022/10/15 12:52:04;;;;;;;7.93;1.92;;;15.90;99.90;;;;;;5035025;28;20473;-59